createdAt,value
2024-05-09T00:00:36.423Z,70.88
2024-05-09T00:03:10.808Z,71.57
2024-05-09T00:05:40.588Z,71.24
2024-05-09T00:08:08.980Z,71.33
2024-05-09T00:10:38.110Z,70.79
2024-05-09T00:13:07.391Z,70.87
2024-05-09T00:15:35.248Z,70.76
2024-05-09T00:18:03.495Z,71.11
2024-05-09T00:20:37.821Z,70.86
2024-05-09T00:23:08.759Z,70.90
2024-05-09T00:25:35.928Z,71.23
2024-05-09T00:28:02.972Z,71.08
2024-05-09T00:30:34.575Z,71.13
2024-05-09T00:33:07.771Z,71.08
2024-05-09T00:35:36.049Z,70.72
2024-05-09T00:38:03.178Z,71.18
2024-05-09T00:40:41.019Z,71.03
2024-05-09T00:43:12.614Z,70.81
2024-05-09T00:45:40.969Z,70.98
2024-05-09T00:48:09.568Z,71.19
2024-05-09T00:50:38.843Z,71.54
2024-05-09T00:53:11.021Z,71.35
2024-05-09T00:55:38.705Z,70.74
2024-05-09T00:58:07.042Z,70.99
2024-05-09T01:00:39.061Z,71.12
2024-05-09T01:03:09.229Z,71.29
2024-05-09T01:05:39.198Z,71.60
2024-05-09T01:08:07.133Z,71.49
2024-05-09T01:10:35.503Z,71.46
2024-05-09T01:13:07.051Z,72.09
2024-05-09T01:15:34.760Z,71.75
2024-05-09T01:18:07.033Z,71.24
2024-05-09T01:20:41.081Z,71.44
2024-05-09T01:23:11.746Z,71.85
2024-05-09T01:25:38.902Z,71.47
2024-05-09T01:28:06.218Z,71.45
2024-05-09T01:30:35.884Z,71.67
2024-05-09T01:33:09.853Z,72.00
2024-05-09T01:35:40.887Z,71.95
2024-05-09T01:38:08.705Z,72.02
2024-05-09T01:40:38.866Z,72.12
2024-05-09T01:43:08.828Z,71.71
2024-05-09T01:45:36.424Z,71.83
2024-05-09T01:48:03.682Z,71.58
2024-05-09T01:50:38.157Z,71.77
2024-05-09T01:53:10.052Z,71.79
2024-05-09T01:55:37.066Z,71.93
2024-05-09T01:58:03.733Z,71.70
2024-05-09T02:00:39.507Z,71.80
2024-05-09T02:03:15.896Z,72.28
2024-05-09T02:05:46.177Z,72.35
2024-05-09T02:08:18.799Z,72.12
2024-05-09T02:10:47.278Z,71.96
2024-05-09T02:13:15.013Z,72.02
2024-05-09T02:15:41.713Z,72.26
2024-05-09T02:18:09.158Z,72.46
2024-05-09T02:20:39.866Z,72.21
2024-05-09T02:23:07.148Z,72.01
2024-05-09T02:25:34.209Z,72.46
2024-05-09T02:28:01.262Z,72.51
2024-05-09T02:30:38.527Z,72.21
2024-05-09T02:33:09.501Z,72.43
2024-05-09T02:35:37.445Z,72.57
2024-05-09T02:38:04.539Z,72.58
2024-05-09T02:40:37.417Z,72.81
2024-05-09T02:43:09.827Z,72.63
2024-05-09T02:45:37.776Z,72.77
2024-05-09T02:48:05.100Z,72.65
2024-05-09T02:50:37.903Z,72.77
2024-05-09T02:53:11.349Z,72.47
2024-05-09T02:55:38.703Z,72.46
2024-05-09T02:58:08.990Z,72.57
2024-05-09T03:00:39.882Z,72.78
2024-05-09T03:03:10.871Z,72.61
2024-05-09T03:05:39.849Z,72.71
2024-05-09T03:08:07.224Z,72.79
2024-05-09T03:10:36.750Z,72.33
2024-05-09T03:13:14.376Z,72.44
2024-05-09T03:15:42.904Z,72.77
2024-05-09T03:18:10.200Z,72.54
2024-05-09T03:20:37.912Z,72.24
2024-05-09T03:23:08.124Z,72.55
2024-05-09T03:25:36.099Z,72.47
2024-05-09T03:28:02.876Z,72.90
2024-05-09T03:30:38.141Z,72.29
2024-05-09T03:33:18.010Z,72.46
2024-05-09T03:35:46.679Z,72.43
2024-05-09T03:38:13.843Z,72.52
2024-05-09T03:40:48.611Z,72.35
2024-05-09T03:43:16.197Z,72.26
2024-05-09T03:45:43.740Z,72.66
2024-05-09T03:48:11.065Z,72.64
2024-05-09T03:50:38.302Z,72.27
2024-05-09T03:53:05.670Z,72.52
2024-05-09T03:55:32.570Z,72.45
2024-05-09T03:57:59.507Z,72.87
2024-05-09T04:00:34.881Z,72.81
2024-05-09T04:03:08.261Z,72.80
2024-05-09T04:05:40.561Z,72.68
2024-05-09T04:08:08.708Z,72.53
2024-05-09T04:10:35.750Z,72.63
2024-05-09T04:13:03.502Z,72.39
2024-05-09T04:15:30.726Z,72.66
2024-05-09T04:18:00.992Z,72.82
2024-05-09T04:20:36.335Z,72.77
2024-05-09T04:23:08.072Z,72.77
2024-05-09T04:25:35.613Z,73.02
2024-05-09T04:28:02.368Z,72.90
2024-05-09T04:30:36.751Z,73.27
2024-05-09T04:33:08.495Z,73.39
2024-05-09T04:35:37.395Z,73.43
2024-05-09T04:38:05.082Z,73.05
2024-05-09T04:40:38.348Z,72.99
2024-05-09T04:43:06.746Z,73.35
2024-05-09T04:45:33.996Z,73.02
2024-05-09T04:48:01.637Z,73.37
2024-05-09T04:50:36.464Z,73.40
2024-05-09T04:53:10.498Z,73.33
2024-05-09T04:55:38.710Z,73.05
2024-05-09T04:58:08.734Z,73.55
2024-05-09T05:00:37.692Z,73.11
2024-05-09T05:03:08.320Z,72.98
2024-05-09T05:05:41.897Z,73.18
2024-05-09T05:08:16.270Z,73.37
2024-05-09T05:10:44.169Z,73.53
2024-05-09T05:13:20.649Z,73.35
2024-05-09T05:15:50.168Z,73.70
2024-05-09T05:18:17.361Z,73.68
2024-05-09T05:20:44.677Z,73.78
2024-05-09T05:23:16.302Z,74.60
2024-05-09T05:25:43.514Z,74.92
2024-05-09T05:28:24.131Z,74.76
2024-05-09T05:30:51.044Z,74.59
2024-05-09T05:33:19.241Z,74.59
2024-05-09T05:35:46.487Z,74.62
2024-05-09T05:38:13.368Z,75.05
2024-05-09T05:40:41.006Z,75.43
2024-05-09T05:43:10.012Z,75.08
2024-05-09T05:45:37.078Z,74.70
2024-05-09T05:48:05.936Z,74.80
2024-05-09T05:50:36.667Z,74.85
2024-05-09T05:53:10.429Z,74.72
2024-05-09T05:55:39.215Z,74.67
2024-05-09T05:58:10.405Z,75.00
2024-05-09T06:00:39.350Z,74.66
2024-05-09T06:03:08.721Z,75.11
2024-05-09T06:05:44.217Z,74.52
2024-05-09T06:08:11.539Z,75.83
2024-05-09T06:10:40.510Z,75.54
2024-05-09T06:13:12.161Z,74.86
2024-05-09T06:15:40.374Z,75.02
2024-05-09T06:18:08.487Z,75.32
2024-05-09T06:20:37.859Z,75.46
2024-05-09T06:23:06.784Z,75.19
2024-05-09T06:25:34.561Z,74.73
2024-05-09T06:28:01.562Z,74.36
2024-05-09T06:30:36.974Z,74.60
2024-05-09T06:33:07.873Z,74.79
2024-05-09T06:35:35.257Z,73.04
2024-05-09T06:38:02.260Z,73.19
2024-05-09T06:40:37.000Z,73.08
2024-05-09T06:43:10.984Z,73.13
2024-05-09T06:45:39.663Z,73.45
2024-05-09T06:48:07.382Z,73.20
2024-05-09T06:50:37.930Z,73.20
2024-05-09T06:53:06.418Z,72.43
2024-05-09T06:55:33.162Z,72.25
2024-05-09T06:57:59.846Z,72.15
2024-05-09T07:00:34.651Z,70.96
2024-05-09T07:03:14.705Z,70.04
2024-05-09T07:05:43.765Z,70.11
2024-05-09T07:08:10.796Z,69.30
2024-05-09T07:10:37.872Z,68.95
2024-05-09T07:13:12.376Z,68.30
2024-05-09T07:15:39.960Z,68.41
2024-05-09T07:18:10.164Z,68.17
2024-05-09T07:20:37.058Z,67.30
2024-05-09T07:23:03.866Z,66.93
2024-05-09T07:25:30.766Z,65.70
2024-05-09T07:27:57.610Z,65.02
2024-05-09T07:30:32.604Z,65.10
2024-05-09T07:33:01.638Z,64.31
2024-05-09T07:35:29.336Z,63.90
2024-05-09T07:37:56.254Z,64.38
2024-05-09T07:40:32.686Z,64.21
2024-05-09T07:43:07.145Z,62.29
2024-05-09T07:53:36.442Z,61.12
2024-05-09T07:55:53.995Z,61.29
2024-05-09T07:58:21.018Z,61.53
2024-05-09T08:00:47.927Z,61.97
2024-05-09T08:03:14.672Z,60.67
2024-05-09T08:05:41.506Z,59.72
2024-05-09T08:08:08.252Z,59.20
2024-05-09T08:10:35.354Z,58.89
2024-05-09T08:13:02.111Z,58.66
2024-05-09T08:15:29.124Z,58.32
2024-05-09T08:17:56.391Z,57.35
2024-05-09T08:20:30.907Z,56.53
2024-05-09T08:23:01.481Z,56.94
2024-05-09T08:25:28.494Z,57.25
2024-05-09T08:27:55.256Z,56.16
2024-05-09T08:30:30.034Z,55.39
2024-05-09T08:33:03.728Z,55.73
2024-05-09T08:35:30.491Z,54.97
2024-05-09T08:37:57.392Z,55.89
2024-05-09T08:40:30.987Z,55.54
2024-05-09T08:43:03.183Z,54.87
2024-05-09T08:45:32.572Z,54.95
2024-05-09T08:48:01.564Z,55.04
2024-05-09T08:50:35.987Z,55.74
2024-05-09T08:53:08.647Z,53.60
2024-05-09T08:55:40.221Z,53.39
2024-05-09T08:58:12.696Z,52.24
2024-05-09T09:00:50.133Z,52.01
2024-05-09T09:03:24.536Z,50.57
2024-05-09T09:06:01.492Z,52.22
2024-05-09T09:08:30.919Z,50.73
2024-05-09T09:11:00.898Z,49.09
2024-05-09T09:13:27.700Z,50.50
2024-05-09T09:15:57.920Z,50.78
2024-05-09T09:18:26.613Z,50.41
2024-05-09T09:20:53.808Z,50.18
2024-05-09T09:23:20.623Z,49.71
2024-05-09T09:25:47.574Z,49.77
2024-05-09T09:28:14.624Z,50.27
2024-05-09T09:30:42.355Z,49.14
2024-05-09T09:33:10.019Z,49.44
2024-05-09T09:35:38.876Z,49.19
2024-05-09T09:38:07.386Z,48.42
2024-05-09T09:40:38.938Z,49.94
2024-05-09T09:43:22.017Z,49.10
2024-05-09T09:45:55.237Z,46.19
2024-05-09T09:48:23.083Z,46.82
2024-05-09T09:50:52.103Z,45.88
2024-05-09T09:53:19.501Z,48.46
2024-05-09T09:55:46.735Z,46.99
2024-05-09T09:58:15.865Z,46.86
2024-05-09T10:00:42.653Z,47.64
2024-05-09T10:03:09.464Z,47.46
2024-05-09T10:05:37.422Z,47.75
2024-05-09T10:08:06.889Z,46.78
2024-05-09T10:10:34.923Z,45.46
2024-05-09T10:13:08.801Z,44.56
2024-05-09T10:15:52.397Z,45.04
2024-05-09T10:18:28.161Z,44.10
2024-05-09T10:20:57.181Z,44.25
2024-05-09T10:23:27.589Z,43.71
2024-05-09T10:26:05.636Z,44.60
2024-05-09T10:28:35.068Z,43.31
2024-05-09T10:31:07.894Z,43.01
2024-05-09T10:33:49.068Z,42.70
2024-05-09T10:36:21.310Z,41.12
2024-05-09T10:38:59.536Z,41.40
2024-05-09T10:41:26.132Z,41.40
2024-05-09T10:43:52.725Z,41.66
2024-05-09T10:46:20.022Z,40.89
2024-05-09T10:48:48.449Z,42.12
2024-05-09T10:51:16.986Z,40.82
2024-05-09T10:53:45.214Z,44.88
2024-05-09T10:56:14.008Z,41.94
2024-05-09T10:58:40.778Z,42.39
2024-05-09T11:01:09.209Z,42.25
2024-05-09T11:03:36.649Z,43.44
2024-05-09T11:06:03.941Z,41.65
2024-05-09T11:08:32.789Z,41.99
2024-05-09T11:11:00.274Z,42.68
2024-05-09T11:13:27.867Z,42.73
2024-05-09T11:15:54.694Z,40.79
2024-05-09T11:18:26.761Z,40.14
2024-05-09T11:20:58.406Z,41.30
2024-05-09T11:23:27.265Z,42.17
2024-05-09T11:25:55.274Z,40.74
2024-05-09T11:28:23.038Z,41.07
2024-05-09T11:30:50.811Z,41.19
2024-05-09T11:33:19.507Z,41.60
2024-05-09T11:35:47.077Z,41.60
2024-05-09T11:38:14.055Z,42.83
2024-05-09T11:40:40.944Z,42.52
2024-05-09T11:43:07.900Z,41.54
2024-05-09T11:45:34.732Z,42.15
2024-05-09T11:48:01.774Z,41.14
2024-05-09T11:50:33.113Z,41.42
2024-05-09T11:53:06.497Z,40.79
2024-05-09T11:55:36.689Z,42.19
2024-05-09T11:58:04.447Z,40.44
2024-05-09T12:00:36.677Z,41.79
2024-05-09T12:03:05.707Z,41.04
2024-05-09T12:05:34.009Z,41.43
2024-05-09T12:08:01.429Z,41.02
2024-05-09T12:10:33.465Z,41.87
2024-05-09T12:13:04.178Z,41.53
2024-05-09T12:15:32.496Z,41.38
2024-05-09T12:18:02.745Z,39.94
2024-05-09T12:20:36.690Z,39.39
2024-05-09T12:23:06.544Z,39.80
2024-05-09T12:25:33.416Z,39.57
2024-05-09T12:28:00.575Z,40.70
2024-05-09T12:30:35.595Z,39.79
2024-05-09T12:33:07.283Z,39.70
2024-05-09T12:35:34.040Z,40.16
2024-05-09T12:38:00.704Z,39.11
2024-05-09T12:40:35.447Z,39.13
2024-05-09T12:43:06.497Z,39.57
2024-05-09T12:45:36.437Z,40.58
2024-05-09T12:48:04.845Z,40.83
2024-05-09T12:50:33.821Z,38.96
2024-05-09T12:53:02.600Z,38.16
2024-05-09T12:55:34.252Z,38.40
2024-05-09T12:58:08.301Z,37.57
2024-05-09T13:00:35.305Z,37.87
2024-05-09T13:03:02.205Z,39.25
2024-05-09T13:05:29.519Z,37.88
2024-05-09T13:07:57.151Z,38.01
2024-05-09T13:10:31.116Z,38.33
2024-05-09T13:13:00.360Z,38.66
2024-05-09T13:15:27.476Z,38.47
2024-05-09T13:17:56.383Z,38.57
2024-05-09T13:20:31.625Z,38.88
2024-05-09T13:23:02.395Z,39.52
2024-05-09T13:25:29.968Z,40.15
2024-05-09T13:27:57.525Z,41.42
2024-05-09T13:32:54.934Z,42.23
2024-05-09T13:35:21.696Z,41.85
2024-05-09T13:37:48.353Z,42.54
2024-05-09T13:40:23.102Z,41.84
2024-05-09T13:42:56.402Z,42.45
2024-05-09T13:45:23.120Z,42.93
2024-05-09T13:47:49.895Z,41.82
2024-05-09T13:50:27.737Z,41.75
2024-05-09T13:53:00.068Z,42.50
2024-05-09T13:55:26.686Z,42.27
2024-05-09T13:57:53.358Z,42.58
2024-05-09T14:00:31.947Z,42.75
2024-05-09T14:03:06.742Z,43.14
2024-05-09T14:05:33.623Z,42.24
2024-05-09T14:08:00.835Z,42.19
2024-05-09T14:12:55.210Z,41.91
2024-05-09T14:15:21.973Z,42.20
2024-05-09T14:17:48.651Z,42.26
2024-05-09T14:20:23.274Z,42.28
2024-05-09T14:22:56.641Z,43.24
2024-05-09T14:25:26.367Z,42.63
2024-05-09T14:27:53.351Z,42.83
2024-05-09T14:30:29.721Z,42.55
2024-05-09T14:33:01.573Z,42.00
2024-05-09T14:35:28.294Z,42.16
2024-05-09T14:37:54.942Z,41.56
2024-05-09T14:40:31.169Z,40.98
2024-05-09T14:43:06.468Z,41.03
2024-05-09T14:45:34.768Z,41.22
2024-05-09T14:48:02.382Z,40.33
2024-05-09T14:50:35.492Z,40.03
2024-05-09T14:53:06.495Z,39.82
2024-05-09T14:55:35.908Z,40.44
2024-05-09T14:58:03.762Z,39.21
2024-05-09T15:00:35.808Z,39.79
2024-05-09T15:03:05.066Z,41.20
2024-05-09T15:05:31.910Z,41.65
2024-05-09T15:07:59.412Z,41.26
2024-05-09T15:10:34.075Z,41.99
2024-05-09T15:13:03.607Z,41.97
2024-05-09T15:15:30.783Z,42.41
2024-05-09T15:17:57.695Z,40.74
2024-05-09T15:20:32.958Z,40.02
2024-05-09T15:23:02.904Z,40.97
2024-05-09T15:25:29.842Z,40.63
2024-05-09T15:27:56.778Z,39.69
2024-05-09T15:30:30.658Z,40.23
2024-05-09T15:33:00.554Z,40.07
2024-05-09T15:35:27.761Z,40.37
2024-05-09T15:37:54.446Z,39.68
2024-05-09T15:40:30.994Z,39.04
2024-05-09T15:43:05.355Z,39.82
2024-05-09T15:45:32.535Z,39.68
2024-05-09T15:47:59.718Z,39.78
2024-05-09T15:50:36.193Z,40.90
2024-05-09T15:53:07.255Z,42.56
2024-05-09T15:55:34.951Z,43.24
2024-05-09T15:58:03.268Z,39.29
2024-05-09T16:00:37.565Z,39.47
2024-05-09T16:03:08.329Z,40.49
2024-05-09T16:05:35.133Z,40.98
2024-05-09T16:08:02.331Z,41.73
2024-05-09T16:10:32.847Z,43.46
2024-05-09T16:13:01.598Z,42.76
2024-05-09T16:15:28.685Z,42.20
2024-05-09T16:17:55.541Z,42.04
2024-05-09T16:20:33.955Z,45.34
2024-05-09T16:23:06.387Z,43.29
2024-05-09T16:25:33.058Z,42.32
2024-05-09T16:27:59.988Z,42.04
2024-05-09T16:30:33.898Z,42.98
2024-05-09T16:33:03.910Z,41.33
2024-05-09T16:35:31.271Z,41.49
2024-05-09T16:37:57.965Z,41.32
2024-05-09T16:40:33.186Z,42.31
2024-05-09T16:43:04.725Z,42.82
2024-05-09T16:45:31.794Z,41.58
2024-05-09T16:47:59.073Z,41.43
2024-05-09T16:50:31.077Z,41.50
2024-05-09T16:53:00.106Z,41.81
2024-05-09T16:55:27.139Z,41.85
2024-05-09T16:57:55.106Z,42.03
2024-05-09T17:00:31.777Z,41.42
2024-05-09T17:03:07.436Z,42.08
2024-05-09T17:05:35.278Z,40.79
2024-05-09T17:08:02.503Z,40.22
2024-05-09T17:10:33.116Z,39.96
2024-05-09T17:13:02.309Z,40.64
2024-05-09T17:15:29.469Z,40.96
2024-05-09T17:17:56.410Z,40.65
2024-05-09T17:20:29.868Z,40.93
2024-05-09T17:23:02.312Z,40.86
2024-05-09T17:25:29.561Z,41.53
2024-05-09T17:27:56.887Z,41.42
2024-05-09T17:30:32.031Z,41.53
2024-05-09T17:33:04.225Z,41.46
2024-05-09T17:35:32.003Z,41.62
2024-05-09T17:37:59.794Z,41.74
2024-05-09T17:40:32.755Z,43.01
2024-05-09T17:43:03.490Z,42.47
2024-05-09T17:45:30.787Z,43.01
2024-05-09T17:48:01.047Z,43.47
2024-05-09T17:50:35.055Z,44.28
2024-05-09T17:53:04.479Z,44.35
2024-05-09T17:55:31.356Z,44.51
2024-05-09T17:57:58.389Z,45.65
2024-05-09T18:00:36.392Z,46.62
2024-05-09T18:03:07.264Z,46.50
2024-05-09T18:05:36.502Z,47.04
2024-05-09T18:08:03.964Z,47.34
2024-05-09T18:10:36.624Z,47.74
2024-05-09T18:13:06.336Z,47.99
2024-05-09T18:15:33.855Z,49.70
2024-05-09T18:18:01.602Z,49.46
2024-05-09T18:20:37.727Z,49.73
2024-05-09T18:23:10.660Z,49.91
2024-05-09T18:25:37.427Z,49.75
2024-05-09T18:28:04.583Z,50.31
2024-05-09T18:30:35.148Z,49.65
2024-05-09T18:33:05.859Z,50.33
2024-05-09T18:35:33.935Z,50.43
2024-05-09T18:38:00.783Z,51.25
2024-05-09T18:40:33.021Z,51.09
2024-05-09T18:43:03.596Z,51.32
2024-05-09T18:45:30.872Z,52.19
2024-05-09T18:47:58.218Z,51.63
2024-05-09T18:50:33.963Z,51.92
2024-05-09T18:53:07.719Z,51.18
2024-05-09T18:55:34.920Z,52.33
2024-05-09T18:58:01.762Z,51.80
2024-05-09T19:00:34.731Z,51.79
2024-05-09T19:03:09.107Z,52.13
2024-05-09T19:05:38.254Z,52.02
2024-05-09T19:08:05.800Z,52.48
2024-05-09T19:10:35.077Z,52.40
2024-05-09T19:13:08.152Z,52.46
2024-05-09T19:15:38.213Z,52.96
2024-05-09T19:18:05.509Z,53.12
2024-05-09T19:20:34.933Z,53.28
2024-05-09T19:23:03.173Z,53.53
2024-05-09T19:25:30.977Z,54.07
2024-05-09T19:27:58.035Z,53.91
2024-05-09T19:30:34.141Z,54.29
2024-05-09T19:33:06.442Z,54.54
2024-05-09T19:35:33.251Z,54.85
2024-05-09T19:38:00.036Z,55.22
2024-05-09T19:40:31.449Z,55.27
2024-05-09T19:43:01.164Z,55.52
2024-05-09T19:45:28.219Z,56.26
2024-05-09T19:47:55.475Z,56.36
2024-05-09T19:50:32.681Z,56.54
2024-05-09T19:53:07.669Z,56.83
2024-05-09T19:55:34.951Z,57.05
2024-05-09T19:58:07.175Z,57.42
2024-05-09T20:00:40.369Z,57.66
2024-05-09T20:03:10.267Z,57.84
2024-05-09T20:05:37.971Z,58.00
2024-05-09T20:08:05.832Z,58.15
2024-05-09T20:10:35.065Z,57.94
2024-05-09T20:13:05.037Z,58.11
2024-05-09T20:15:34.670Z,58.70
2024-05-09T20:18:01.714Z,58.98
2024-05-09T20:20:36.348Z,58.91
2024-05-09T20:23:06.926Z,58.88
2024-05-09T20:25:33.594Z,59.40
2024-05-09T20:28:00.391Z,59.83
2024-05-09T20:30:32.102Z,59.54
2024-05-09T20:33:02.866Z,60.04
2024-05-09T20:35:32.043Z,60.30
2024-05-09T20:37:59.176Z,60.16
2024-05-09T20:40:31.821Z,60.10
2024-05-09T20:43:02.078Z,60.63
2024-05-09T20:45:28.779Z,60.67
2024-05-09T20:47:55.877Z,60.73
2024-05-09T20:50:29.303Z,61.02
2024-05-09T20:53:05.231Z,60.99
2024-05-09T20:55:31.953Z,60.96
2024-05-09T20:57:58.877Z,61.61
2024-05-09T21:00:34.356Z,61.52
2024-05-09T21:03:07.044Z,61.88
2024-05-09T21:05:34.593Z,61.94
2024-05-09T21:08:01.772Z,61.81
2024-05-09T21:10:32.726Z,62.13
2024-05-09T21:13:01.044Z,62.26
2024-05-09T21:15:27.913Z,62.40
2024-05-09T21:17:54.597Z,62.36
2024-05-09T21:20:28.261Z,62.85
2024-05-09T21:22:58.115Z,62.96
2024-05-09T21:25:24.942Z,62.74
2024-05-09T21:27:51.741Z,63.09
2024-05-09T21:30:27.351Z,62.99
2024-05-09T21:32:59.883Z,62.63
2024-05-09T21:35:26.694Z,62.82
2024-05-09T21:37:53.349Z,63.06
2024-05-09T21:40:27.306Z,63.33
2024-05-09T21:43:00.779Z,63.25
2024-05-09T21:45:27.647Z,63.47
2024-05-09T21:47:54.688Z,63.34
2024-05-09T21:50:28.037Z,63.34
2024-05-09T21:52:59.140Z,63.40
2024-05-09T21:55:25.879Z,63.11
2024-05-09T21:57:52.586Z,63.43
2024-05-09T22:00:28.797Z,63.63
2024-05-09T22:03:02.284Z,63.25
2024-05-09T22:05:29.221Z,63.48
2024-05-09T22:07:56.550Z,63.47
2024-05-09T22:10:30.220Z,63.72
2024-05-09T22:13:00.314Z,63.49
2024-05-09T22:15:27.160Z,63.42
2024-05-09T22:17:55.206Z,64.29
2024-05-09T22:20:29.003Z,63.95
2024-05-09T22:23:02.726Z,64.11
2024-05-09T22:25:31.008Z,64.32
2024-05-09T22:27:58.712Z,64.22
2024-05-09T22:30:34.107Z,64.33
2024-05-09T22:33:05.834Z,64.47
2024-05-09T22:35:32.880Z,64.50
2024-05-09T22:38:03.129Z,64.39
2024-05-09T22:40:38.925Z,64.60
2024-05-09T22:43:16.354Z,64.61
2024-05-09T22:45:43.158Z,64.77
2024-05-09T22:48:10.165Z,65.06
2024-05-09T22:50:36.885Z,65.18
2024-05-09T22:53:03.605Z,64.96
2024-05-09T22:55:30.321Z,65.40
2024-05-09T22:57:57.277Z,65.24
2024-05-09T23:02:53.675Z,65.28
2024-05-09T23:05:20.659Z,65.50
2024-05-09T23:07:47.386Z,65.70
2024-05-09T23:10:21.003Z,65.98
2024-05-09T23:12:53.906Z,66.23
2024-05-09T23:15:20.520Z,65.84
2024-05-09T23:17:47.385Z,66.32
2024-05-09T23:20:14.992Z,65.87
2024-05-09T23:22:46.172Z,65.88
2024-05-09T23:25:12.912Z,65.91
2024-05-09T23:27:39.615Z,66.03
2024-05-09T23:30:11.974Z,65.77
2024-05-09T23:32:39.130Z,65.97
2024-05-09T23:35:06.180Z,65.68
2024-05-09T23:37:32.836Z,65.94
2024-05-09T23:39:59.585Z,66.23
2024-05-09T23:42:26.190Z,66.44
2024-05-09T23:44:53.649Z,66.48
2024-05-09T23:47:22.393Z,66.71
2024-05-09T23:49:49.044Z,66.60
2024-05-09T23:52:15.861Z,66.85
2024-05-09T23:54:42.525Z,67.18
2024-05-09T23:57:09.136Z,67.00
2024-05-09T23:59:35.708Z,66.83
